sensor_id;sensor_type;location;lat;lon;timestamp;P1;durP1;ratioP1;P2;durP2;ratioP2
29432;SDS011;16405;53.964;13.448;2023-03-08T00:01:47;8.95;;;0.93;;
29432;SDS011;16405;53.964;13.448;2023-03-08T00:04:13;5.72;;;0.73;;
29432;SDS011;16405;53.964;13.448;2023-03-08T00:06:42;6.13;;;0.70;;
29432;SDS011;16405;53.964;13.448;2023-03-08T00:09:08;8.55;;;1.05;;
29432;SDS011;16405;53.964;13.448;2023-03-08T00:11:34;9.05;;;1.00;;
29432;SDS011;16405;53.964;13.448;2023-03-08T00:14:00;10.82;;;1.10;;
29432;SDS011;16405;53.964;13.448;2023-03-08T00:16:27;7.88;;;0.88;;
29432;SDS011;16405;53.964;13.448;2023-03-08T00:18:53;10.27;;;1.45;;
29432;SDS011;16405;53.964;13.448;2023-03-08T00:21:24;12.52;;;1.38;;
29432;SDS011;16405;53.964;13.448;2023-03-08T00:23:51;12.00;;;1.30;;
29432;SDS011;16405;53.964;13.448;2023-03-08T00:26:18;8.13;;;1.50;;
29432;SDS011;16405;53.964;13.448;2023-03-08T00:28:44;9.18;;;1.60;;
29432;SDS011;16405;53.964;13.448;2023-03-08T00:31:17;8.73;;;1.40;;
29432;SDS011;16405;53.964;13.448;2023-03-08T00:33:43;5.78;;;1.38;;
29432;SDS011;16405;53.964;13.448;2023-03-08T00:36:12;8.18;;;1.50;;
29432;SDS011;16405;53.964;13.448;2023-03-08T00:38:43;9.80;;;1.20;;
29432;SDS011;16405;53.964;13.448;2023-03-08T00:41:09;5.53;;;1.20;;
29432;SDS011;16405;53.964;13.448;2023-03-08T00:43:35;11.43;;;1.50;;
29432;SDS011;16405;53.964;13.448;2023-03-08T00:46:03;8.98;;;1.52;;
29432;SDS011;16405;53.964;13.448;2023-03-08T00:48:30;9.40;;;1.80;;
29432;SDS011;16405;53.964;13.448;2023-03-08T00:51:01;11.35;;;2.55;;
29432;SDS011;16405;53.964;13.448;2023-03-08T00:53:27;14.07;;;1.67;;
29432;SDS011;16405;53.964;13.448;2023-03-08T00:55:56;10.27;;;1.30;;
29432;SDS011;16405;53.964;13.448;2023-03-08T00:58:30;7.22;;;1.52;;
29432;SDS011;16405;53.964;13.448;2023-03-08T01:00:57;13.65;;;1.70;;
29432;SDS011;16405;53.964;13.448;2023-03-08T01:03:24;10.00;;;1.35;;
29432;SDS011;16405;53.964;13.448;2023-03-08T01:05:57;13.30;;;1.65;;
29432;SDS011;16405;53.964;13.448;2023-03-08T01:08:28;10.77;;;1.90;;
29432;SDS011;16405;53.964;13.448;2023-03-08T01:10:55;12.20;;;1.73;;
29432;SDS011;16405;53.964;13.448;2023-03-08T01:13:28;9.75;;;1.42;;
29432;SDS011;16405;53.964;13.448;2023-03-08T01:15:57;12.63;;;1.60;;
29432;SDS011;16405;53.964;13.448;2023-03-08T01:18:23;8.60;;;1.60;;
29432;SDS011;16405;53.964;13.448;2023-03-08T01:21:00;20.02;;;1.73;;
29432;SDS011;16405;53.964;13.448;2023-03-08T01:23:28;13.38;;;2.13;;
29432;SDS011;16405;53.964;13.448;2023-03-08T01:26:01;12.65;;;1.63;;
29432;SDS011;16405;53.964;13.448;2023-03-08T01:28:31;11.05;;;2.03;;
29432;SDS011;16405;53.964;13.448;2023-03-08T01:31:05;10.80;;;1.52;;
29432;SDS011;16405;53.964;13.448;2023-03-08T01:33:45;10.05;;;1.45;;
29432;SDS011;16405;53.964;13.448;2023-03-08T01:36:13;14.70;;;1.65;;
29432;SDS011;16405;53.964;13.448;2023-03-08T01:38:42;10.60;;;1.77;;
29432;SDS011;16405;53.964;13.448;2023-03-08T01:41:16;10.80;;;1.80;;
29432;SDS011;16405;53.964;13.448;2023-03-08T01:43:46;12.25;;;1.33;;
29432;SDS011;16405;53.964;13.448;2023-03-08T01:46:25;11.50;;;1.45;;
29432;SDS011;16405;53.964;13.448;2023-03-08T02:02:48;7.65;;;1.45;;
29432;SDS011;16405;53.964;13.448;2023-03-08T02:05:22;22.23;;;1.95;;
29432;SDS011;16405;53.964;13.448;2023-03-08T02:07:50;15.88;;;1.40;;
29432;SDS011;16405;53.964;13.448;2023-03-08T02:10:16;11.73;;;1.50;;
29432;SDS011;16405;53.964;13.448;2023-03-08T02:12:42;16.02;;;1.20;;
29432;SDS011;16405;53.964;13.448;2023-03-08T02:15:10;11.65;;;1.45;;
29432;SDS011;16405;53.964;13.448;2023-03-08T02:17:38;14.73;;;1.60;;
29432;SDS011;16405;53.964;13.448;2023-03-08T02:22:43;11.05;;;1.42;;
29432;SDS011;16405;53.964;13.448;2023-03-08T02:27:42;14.57;;;1.63;;
29432;SDS011;16405;53.964;13.448;2023-03-08T02:30:13;12.40;;;1.75;;
29432;SDS011;16405;53.964;13.448;2023-03-08T02:32:41;12.57;;;1.50;;
29432;SDS011;16405;53.964;13.448;2023-03-08T02:35:07;12.70;;;1.65;;
29432;SDS011;16405;53.964;13.448;2023-03-08T02:37:34;8.43;;;1.58;;
29432;SDS011;16405;53.964;13.448;2023-03-08T02:40:00;18.45;;;1.67;;
29432;SDS011;16405;53.964;13.448;2023-03-08T02:42:26;11.80;;;1.27;;
29432;SDS011;16405;53.964;13.448;2023-03-08T02:44:51;11.95;;;1.60;;
29432;SDS011;16405;53.964;13.448;2023-03-08T02:47:17;8.52;;;1.35;;
29432;SDS011;16405;53.964;13.448;2023-03-08T02:49:43;12.68;;;1.65;;
29432;SDS011;16405;53.964;13.448;2023-03-08T02:52:09;13.23;;;1.38;;
29432;SDS011;16405;53.964;13.448;2023-03-08T02:54:34;17.17;;;1.63;;
29432;SDS011;16405;53.964;13.448;2023-03-08T02:57:00;10.07;;;1.42;;
29432;SDS011;16405;53.964;13.448;2023-03-08T02:59:31;15.80;;;1.50;;
29432;SDS011;16405;53.964;13.448;2023-03-08T03:01:56;12.02;;;1.40;;
29432;SDS011;16405;53.964;13.448;2023-03-08T03:04:23;13.10;;;1.70;;
29432;SDS011;16405;53.964;13.448;2023-03-08T03:06:52;15.60;;;1.60;;
29432;SDS011;16405;53.964;13.448;2023-03-08T03:09:18;11.07;;;1.23;;
29432;SDS011;16405;53.964;13.448;2023-03-08T03:11:44;15.85;;;1.20;;
29432;SDS011;16405;53.964;13.448;2023-03-08T03:14:10;14.25;;;1.40;;
29432;SDS011;16405;53.964;13.448;2023-03-08T03:16:36;14.73;;;1.75;;
29432;SDS011;16405;53.964;13.448;2023-03-08T03:19:01;10.15;;;1.60;;
29432;SDS011;16405;53.964;13.448;2023-03-08T03:21:28;4.70;;;1.33;;
29432;SDS011;16405;53.964;13.448;2023-03-08T03:23:54;8.27;;;1.40;;
29432;SDS011;16405;53.964;13.448;2023-03-08T03:26:21;12.77;;;1.42;;
29432;SDS011;16405;53.964;13.448;2023-03-08T03:28:48;9.98;;;1.52;;
29432;SDS011;16405;53.964;13.448;2023-03-08T03:31:17;19.80;;;2.20;;
29432;SDS011;16405;53.964;13.448;2023-03-08T03:33:46;9.73;;;1.20;;
29432;SDS011;16405;53.964;13.448;2023-03-08T03:36:13;11.48;;;1.80;;
29432;SDS011;16405;53.964;13.448;2023-03-08T03:38:43;9.98;;;1.48;;
29432;SDS011;16405;53.964;13.448;2023-03-08T03:41:10;8.27;;;1.60;;
29432;SDS011;16405;53.964;13.448;2023-03-08T03:43:41;10.77;;;1.45;;
29432;SDS011;16405;53.964;13.448;2023-03-08T03:46:11;18.98;;;1.85;;
29432;SDS011;16405;53.964;13.448;2023-03-08T03:48:40;12.30;;;2.25;;
29432;SDS011;16405;53.964;13.448;2023-03-08T03:51:08;14.82;;;1.50;;
29432;SDS011;16405;53.964;13.448;2023-03-08T03:53:40;6.95;;;1.40;;
29432;SDS011;16405;53.964;13.448;2023-03-08T03:56:07;19.52;;;1.90;;
29432;SDS011;16405;53.964;13.448;2023-03-08T03:58:42;10.85;;;2.15;;
29432;SDS011;16405;53.964;13.448;2023-03-08T04:03:49;12.35;;;2.42;;
29432;SDS011;16405;53.964;13.448;2023-03-08T04:06:18;12.82;;;2.58;;
29432;SDS011;16405;53.964;13.448;2023-03-08T04:08:56;12.55;;;2.60;;
29432;SDS011;16405;53.964;13.448;2023-03-08T04:11:37;9.20;;;2.90;;
29432;SDS011;16405;53.964;13.448;2023-03-08T04:14:03;15.50;;;3.42;;
29432;SDS011;16405;53.964;13.448;2023-03-08T04:16:31;14.85;;;3.60;;
29432;SDS011;16405;53.964;13.448;2023-03-08T04:19:01;12.90;;;3.85;;
29432;SDS011;16405;53.964;13.448;2023-03-08T04:21:30;15.55;;;4.22;;
29432;SDS011;16405;53.964;13.448;2023-03-08T04:23:57;21.02;;;4.13;;
29432;SDS011;16405;53.964;13.448;2023-03-08T04:26:23;15.57;;;4.88;;
29432;SDS011;16405;53.964;13.448;2023-03-08T04:28:49;20.35;;;5.47;;
29432;SDS011;16405;53.964;13.448;2023-03-08T04:31:16;22.45;;;5.63;;
29432;SDS011;16405;53.964;13.448;2023-03-08T04:33:55;19.40;;;5.07;;
29432;SDS011;16405;53.964;13.448;2023-03-08T04:36:22;29.38;;;5.68;;
29432;SDS011;16405;53.964;13.448;2023-03-08T04:38:48;26.70;;;6.70;;
29432;SDS011;16405;53.964;13.448;2023-03-08T04:41:15;21.27;;;6.93;;
29432;SDS011;16405;53.964;13.448;2023-03-08T04:43:45;22.02;;;7.28;;
29432;SDS011;16405;53.964;13.448;2023-03-08T04:46:24;21.33;;;6.97;;
29432;SDS011;16405;53.964;13.448;2023-03-08T04:48:52;20.33;;;7.15;;
29432;SDS011;16405;53.964;13.448;2023-03-08T04:51:20;18.02;;;7.70;;
29432;SDS011;16405;53.964;13.448;2023-03-08T04:53:48;21.20;;;7.72;;
29432;SDS011;16405;53.964;13.448;2023-03-08T04:56:14;18.95;;;7.50;;
29432;SDS011;16405;53.964;13.448;2023-03-08T04:58:42;17.45;;;7.25;;
29432;SDS011;16405;53.964;13.448;2023-03-08T05:01:09;17.60;;;7.43;;
29432;SDS011;16405;53.964;13.448;2023-03-08T05:03:41;23.95;;;8.38;;
29432;SDS011;16405;53.964;13.448;2023-03-08T05:06:08;25.13;;;8.13;;
29432;SDS011;16405;53.964;13.448;2023-03-08T05:08:35;20.45;;;8.45;;
29432;SDS011;16405;53.964;13.448;2023-03-08T05:11:01;24.63;;;9.15;;
29432;SDS011;16405;53.964;13.448;2023-03-08T05:13:29;20.60;;;8.20;;
29432;SDS011;16405;53.964;13.448;2023-03-08T05:16:03;21.27;;;8.30;;
29432;SDS011;16405;53.964;13.448;2023-03-08T05:18:31;15.25;;;7.60;;
29432;SDS011;16405;53.964;13.448;2023-03-08T05:20:57;18.23;;;7.85;;
29432;SDS011;16405;53.964;13.448;2023-03-08T05:23:30;18.75;;;7.30;;
29432;SDS011;16405;53.964;13.448;2023-03-08T05:25:57;16.52;;;7.05;;
29432;SDS011;16405;53.964;13.448;2023-03-08T05:28:25;17.33;;;7.00;;
29432;SDS011;16405;53.964;13.448;2023-03-08T05:31:04;19.45;;;7.50;;
29432;SDS011;16405;53.964;13.448;2023-03-08T05:33:42;20.13;;;6.95;;
29432;SDS011;16405;53.964;13.448;2023-03-08T05:36:10;12.02;;;6.10;;
29432;SDS011;16405;53.964;13.448;2023-03-08T05:38:37;22.60;;;6.47;;
29432;SDS011;16405;53.964;13.448;2023-03-08T05:41:06;18.85;;;6.13;;
29432;SDS011;16405;53.964;13.448;2023-03-08T05:43:36;22.42;;;6.07;;
29432;SDS011;16405;53.964;13.448;2023-03-08T05:46:05;21.35;;;5.97;;
29432;SDS011;16405;53.964;13.448;2023-03-08T05:48:38;14.40;;;5.70;;
29432;SDS011;16405;53.964;13.448;2023-03-08T05:51:05;19.45;;;6.22;;
29432;SDS011;16405;53.964;13.448;2023-03-08T05:53:40;19.55;;;6.00;;
29432;SDS011;16405;53.964;13.448;2023-03-08T05:56:07;13.52;;;5.40;;
29432;SDS011;16405;53.964;13.448;2023-03-08T05:58:37;18.02;;;5.75;;
29432;SDS011;16405;53.964;13.448;2023-03-08T06:01:07;18.65;;;5.43;;
29432;SDS011;16405;53.964;13.448;2023-03-08T06:03:44;19.98;;;5.32;;
29432;SDS011;16405;53.964;13.448;2023-03-08T06:06:12;16.42;;;5.88;;
29432;SDS011;16405;53.964;13.448;2023-03-08T06:08:39;13.98;;;5.70;;
29432;SDS011;16405;53.964;13.448;2023-03-08T06:11:06;16.20;;;5.35;;
29432;SDS011;16405;53.964;13.448;2023-03-08T06:13:33;17.70;;;5.90;;
29432;SDS011;16405;53.964;13.448;2023-03-08T06:15:59;19.10;;;5.32;;
29432;SDS011;16405;53.964;13.448;2023-03-08T06:18:26;18.92;;;5.00;;
29432;SDS011;16405;53.964;13.448;2023-03-08T06:20:56;15.10;;;5.10;;
29432;SDS011;16405;53.964;13.448;2023-03-08T06:23:40;12.57;;;4.68;;
29432;SDS011;16405;53.964;13.448;2023-03-08T06:26:07;13.40;;;5.28;;
29432;SDS011;16405;53.964;13.448;2023-03-08T06:28:34;14.05;;;4.10;;
29432;SDS011;16405;53.964;13.448;2023-03-08T06:31:01;13.90;;;4.65;;
29432;SDS011;16405;53.964;13.448;2023-03-08T06:33:28;13.32;;;3.78;;
29432;SDS011;16405;53.964;13.448;2023-03-08T06:36:03;16.00;;;4.57;;
29432;SDS011;16405;53.964;13.448;2023-03-08T06:38:37;13.25;;;3.95;;
29432;SDS011;16405;53.964;13.448;2023-03-08T06:41:05;12.13;;;4.03;;
29432;SDS011;16405;53.964;13.448;2023-03-08T06:43:32;21.30;;;4.05;;
29432;SDS011;16405;53.964;13.448;2023-03-08T06:46:06;11.55;;;3.85;;
29432;SDS011;16405;53.964;13.448;2023-03-08T06:48:35;7.53;;;3.80;;
29432;SDS011;16405;53.964;13.448;2023-03-08T06:51:02;10.45;;;4.03;;
29432;SDS011;16405;53.964;13.448;2023-03-08T06:53:28;12.13;;;4.07;;
29432;SDS011;16405;53.964;13.448;2023-03-08T06:55:54;12.82;;;4.55;;
29432;SDS011;16405;53.964;13.448;2023-03-08T06:58:21;13.55;;;5.47;;
29432;SDS011;16405;53.964;13.448;2023-03-08T07:00:47;22.88;;;5.80;;
29432;SDS011;16405;53.964;13.448;2023-03-08T07:03:16;15.07;;;5.20;;
29432;SDS011;16405;53.964;13.448;2023-03-08T07:05:41;18.20;;;5.30;;
29432;SDS011;16405;53.964;13.448;2023-03-08T07:08:07;18.13;;;6.45;;
29432;SDS011;16405;53.964;13.448;2023-03-08T07:10:33;16.05;;;6.20;;
29432;SDS011;16405;53.964;13.448;2023-03-08T07:12:59;12.82;;;6.75;;
29432;SDS011;16405;53.964;13.448;2023-03-08T07:15:25;14.90;;;7.32;;
29432;SDS011;16405;53.964;13.448;2023-03-08T07:17:51;19.60;;;7.30;;
29432;SDS011;16405;53.964;13.448;2023-03-08T07:20:21;18.00;;;8.10;;
29432;SDS011;16405;53.964;13.448;2023-03-08T07:22:49;18.58;;;8.38;;
29432;SDS011;16405;53.964;13.448;2023-03-08T07:25:16;21.38;;;9.05;;
29432;SDS011;16405;53.964;13.448;2023-03-08T07:27:44;20.30;;;8.35;;
29432;SDS011;16405;53.964;13.448;2023-03-08T07:30:11;15.77;;;8.68;;
29432;SDS011;16405;53.964;13.448;2023-03-08T07:32:39;17.35;;;8.93;;
29432;SDS011;16405;53.964;13.448;2023-03-08T07:35:10;19.67;;;9.55;;
29432;SDS011;16405;53.964;13.448;2023-03-08T07:37:38;21.17;;;9.45;;
29432;SDS011;16405;53.964;13.448;2023-03-08T07:40:05;17.05;;;9.43;;
29432;SDS011;16405;53.964;13.448;2023-03-08T07:42:32;18.05;;;9.50;;
29432;SDS011;16405;53.964;13.448;2023-03-08T07:44:58;17.25;;;9.10;;
29432;SDS011;16405;53.964;13.448;2023-03-08T07:47:24;19.02;;;9.90;;
29432;SDS011;16405;53.964;13.448;2023-03-08T07:49:49;15.18;;;8.48;;
29432;SDS011;16405;53.964;13.448;2023-03-08T07:52:15;13.82;;;8.25;;
29432;SDS011;16405;53.964;13.448;2023-03-08T07:54:43;16.52;;;8.50;;
29432;SDS011;16405;53.964;13.448;2023-03-08T07:57:11;15.45;;;8.43;;
29432;SDS011;16405;53.964;13.448;2023-03-08T07:59:38;16.60;;;9.07;;
29432;SDS011;16405;53.964;13.448;2023-03-08T08:02:05;12.85;;;8.32;;
29432;SDS011;16405;53.964;13.448;2023-03-08T08:04:36;22.33;;;9.45;;
29432;SDS011;16405;53.964;13.448;2023-03-08T08:07:02;17.55;;;9.60;;
29432;SDS011;16405;53.964;13.448;2023-03-08T08:09:28;24.42;;;10.43;;
29432;SDS011;16405;53.964;13.448;2023-03-08T08:11:54;20.20;;;9.52;;
29432;SDS011;16405;53.964;13.448;2023-03-08T08:14:20;19.23;;;9.80;;
29432;SDS011;16405;53.964;13.448;2023-03-08T08:16:48;22.40;;;10.77;;
29432;SDS011;16405;53.964;13.448;2023-03-08T08:19:14;20.70;;;10.05;;
29432;SDS011;16405;53.964;13.448;2023-03-08T08:21:41;19.20;;;9.90;;
29432;SDS011;16405;53.964;13.448;2023-03-08T08:24:07;22.83;;;11.30;;
29432;SDS011;16405;53.964;13.448;2023-03-08T08:26:34;19.85;;;9.77;;
29432;SDS011;16405;53.964;13.448;2023-03-08T08:29:00;17.65;;;9.40;;
29432;SDS011;16405;53.964;13.448;2023-03-08T08:31:27;16.63;;;9.75;;
29432;SDS011;16405;53.964;13.448;2023-03-08T08:33:55;17.15;;;10.00;;
29432;SDS011;16405;53.964;13.448;2023-03-08T08:36:22;16.17;;;10.00;;
29432;SDS011;16405;53.964;13.448;2023-03-08T08:38:48;20.75;;;10.70;;
29432;SDS011;16405;53.964;13.448;2023-03-08T08:41:15;17.58;;;10.15;;
29432;SDS011;16405;53.964;13.448;2023-03-08T08:43:44;17.83;;;9.13;;
29432;SDS011;16405;53.964;13.448;2023-03-08T08:46:10;18.58;;;9.35;;
29432;SDS011;16405;53.964;13.448;2023-03-08T08:48:37;26.92;;;14.13;;
29432;SDS011;16405;53.964;13.448;2023-03-08T08:51:07;20.80;;;10.55;;
29432;SDS011;16405;53.964;13.448;2023-03-08T08:53:36;18.33;;;10.43;;
29432;SDS011;16405;53.964;13.448;2023-03-08T08:56:36;17.17;;;8.77;;
29432;SDS011;16405;53.964;13.448;2023-03-08T08:58:55;18.52;;;9.60;;
29432;SDS011;16405;53.964;13.448;2023-03-08T09:01:24;16.67;;;8.55;;
29432;SDS011;16405;53.964;13.448;2023-03-08T09:03:53;22.60;;;10.45;;
29432;SDS011;16405;53.964;13.448;2023-03-08T09:06:20;15.52;;;9.90;;
29432;SDS011;16405;53.964;13.448;2023-03-08T09:08:51;20.10;;;9.82;;
29432;SDS011;16405;53.964;13.448;2023-03-08T09:11:19;18.33;;;9.75;;
29432;SDS011;16405;53.964;13.448;2023-03-08T09:13:46;14.10;;;9.73;;
29432;SDS011;16405;53.964;13.448;2023-03-08T09:16:23;19.98;;;9.90;;
29432;SDS011;16405;53.964;13.448;2023-03-08T09:18:57;17.30;;;10.10;;
29432;SDS011;16405;53.964;13.448;2023-03-08T09:21:25;18.17;;;9.55;;
29432;SDS011;16405;53.964;13.448;2023-03-08T09:23:53;14.98;;;8.52;;
29432;SDS011;16405;53.964;13.448;2023-03-08T09:26:33;13.10;;;8.60;;
29432;SDS011;16405;53.964;13.448;2023-03-08T09:29:00;10.80;;;7.07;;
29432;SDS011;16405;53.964;13.448;2023-03-08T09:31:32;14.00;;;7.60;;
29432;SDS011;16405;53.964;13.448;2023-03-08T09:34:06;15.88;;;7.93;;
29432;SDS011;16405;53.964;13.448;2023-03-08T09:36:39;14.55;;;9.20;;
29432;SDS011;16405;53.964;13.448;2023-03-08T09:39:12;16.15;;;9.02;;
29432;SDS011;16405;53.964;13.448;2023-03-08T09:41:48;19.42;;;8.60;;
29432;SDS011;16405;53.964;13.448;2023-03-08T09:59:15;12.07;;;5.63;;
29432;SDS011;16405;53.964;13.448;2023-03-08T10:03:11;13.85;;;6.25;;
29432;SDS011;16405;53.964;13.448;2023-03-08T10:05:26;14.45;;;5.95;;
29432;SDS011;16405;53.964;13.448;2023-03-08T10:08:17;12.68;;;6.43;;
29432;SDS011;16405;53.964;13.448;2023-03-08T10:13:35;12.60;;;6.35;;
29432;SDS011;16405;53.964;13.448;2023-03-08T10:21:53;9.95;;;5.72;;
29432;SDS011;16405;53.964;13.448;2023-03-08T10:24:29;20.42;;;5.80;;
29432;SDS011;16405;53.964;13.448;2023-03-08T10:27:21;11.90;;;5.85;;
29432;SDS011;16405;53.964;13.448;2023-03-08T10:29:54;10.18;;;6.00;;
29432;SDS011;16405;53.964;13.448;2023-03-08T10:32:23;13.43;;;5.80;;
29432;SDS011;16405;53.964;13.448;2023-03-08T10:34:50;12.32;;;6.68;;
29432;SDS011;16405;53.964;13.448;2023-03-08T10:37:18;10.45;;;5.38;;
29432;SDS011;16405;53.964;13.448;2023-03-08T10:39:51;13.32;;;5.63;;
29432;SDS011;16405;53.964;13.448;2023-03-08T10:42:23;12.00;;;6.60;;
29432;SDS011;16405;53.964;13.448;2023-03-08T10:47:32;11.32;;;6.63;;
29432;SDS011;16405;53.964;13.448;2023-03-08T10:52:41;15.32;;;8.30;;
29432;SDS011;16405;53.964;13.448;2023-03-08T10:55:16;11.73;;;5.25;;
29432;SDS011;16405;53.964;13.448;2023-03-08T10:57:53;11.88;;;6.85;;
29432;SDS011;16405;53.964;13.448;2023-03-08T11:00:33;16.30;;;7.43;;
29432;SDS011;16405;53.964;13.448;2023-03-08T11:03:17;11.45;;;5.72;;
29432;SDS011;16405;53.964;13.448;2023-03-08T11:08:34;15.98;;;5.82;;
29432;SDS011;16405;53.964;13.448;2023-03-08T11:11:10;15.02;;;5.70;;
29432;SDS011;16405;53.964;13.448;2023-03-08T11:13:40;8.63;;;4.75;;
29432;SDS011;16405;53.964;13.448;2023-03-08T11:36:48;8.50;;;4.18;;
29432;SDS011;16405;53.964;13.448;2023-03-08T11:39:52;8.85;;;4.30;;
29432;SDS011;16405;53.964;13.448;2023-03-08T11:48:09;8.52;;;4.47;;
29432;SDS011;16405;53.964;13.448;2023-03-08T11:51:07;9.15;;;4.13;;
29432;SDS011;16405;53.964;13.448;2023-03-08T11:53:52;6.00;;;4.03;;
29432;SDS011;16405;53.964;13.448;2023-03-08T11:56:46;13.55;;;4.03;;
29432;SDS011;16405;53.964;13.448;2023-03-08T11:59:35;8.80;;;4.45;;
29432;SDS011;16405;53.964;13.448;2023-03-08T12:02:22;10.60;;;4.45;;
29432;SDS011;16405;53.964;13.448;2023-03-08T12:05:12;7.95;;;3.80;;
29432;SDS011;16405;53.964;13.448;2023-03-08T12:13:14;10.57;;;4.40;;
29432;SDS011;16405;53.964;13.448;2023-03-08T12:15:58;8.23;;;4.07;;
29432;SDS011;16405;53.964;13.448;2023-03-08T12:21:57;9.27;;;5.07;;
29432;SDS011;16405;53.964;13.448;2023-03-08T12:33:14;9.32;;;4.45;;
29432;SDS011;16405;53.964;13.448;2023-03-08T12:35:52;8.23;;;4.20;;
29432;SDS011;16405;53.964;13.448;2023-03-08T12:40:57;12.30;;;4.20;;
29432;SDS011;16405;53.964;13.448;2023-03-08T12:48:27;14.77;;;4.55;;
29432;SDS011;16405;53.964;13.448;2023-03-08T12:56:23;7.78;;;4.47;;
29432;SDS011;16405;53.964;13.448;2023-03-08T12:59:35;10.50;;;4.35;;
29432;SDS011;16405;53.964;13.448;2023-03-08T13:01:42;8.98;;;4.20;;
29432;SDS011;16405;53.964;13.448;2023-03-08T13:09:36;12.55;;;4.88;;
29432;SDS011;16405;53.964;13.448;2023-03-08T13:15:00;9.25;;;4.00;;
29432;SDS011;16405;53.964;13.448;2023-03-08T13:28:27;11.88;;;4.70;;
29432;SDS011;16405;53.964;13.448;2023-03-08T13:31:15;12.05;;;4.68;;
29432;SDS011;16405;53.964;13.448;2023-03-08T13:33:51;7.95;;;3.83;;
29432;SDS011;16405;53.964;13.448;2023-03-08T13:36:22;11.60;;;4.30;;
29432;SDS011;16405;53.964;13.448;2023-03-08T13:39:01;9.07;;;4.50;;
29432;SDS011;16405;53.964;13.448;2023-03-08T13:41:38;7.80;;;4.00;;
29432;SDS011;16405;53.964;13.448;2023-03-08T13:44:17;7.05;;;4.85;;
29432;SDS011;16405;53.964;13.448;2023-03-08T13:46:54;12.35;;;6.45;;
29432;SDS011;16405;53.964;13.448;2023-03-08T13:49:28;6.72;;;4.20;;
29432;SDS011;16405;53.964;13.448;2023-03-08T13:52:13;8.57;;;5.20;;
29432;SDS011;16405;53.964;13.448;2023-03-08T13:54:48;11.10;;;4.40;;
29432;SDS011;16405;53.964;13.448;2023-03-08T13:57:28;10.90;;;6.68;;
29432;SDS011;16405;53.964;13.448;2023-03-08T14:02:49;7.78;;;4.47;;
29432;SDS011;16405;53.964;13.448;2023-03-08T14:05:16;6.55;;;4.30;;
29432;SDS011;16405;53.964;13.448;2023-03-08T14:08:04;11.15;;;4.25;;
29432;SDS011;16405;53.964;13.448;2023-03-08T14:10:46;8.27;;;4.22;;
29432;SDS011;16405;53.964;13.448;2023-03-08T14:13:34;12.60;;;4.90;;
29432;SDS011;16405;53.964;13.448;2023-03-08T14:16:03;8.10;;;4.68;;
29432;SDS011;16405;53.964;13.448;2023-03-08T14:18:35;10.85;;;4.20;;
29432;SDS011;16405;53.964;13.448;2023-03-08T14:21:14;9.77;;;4.38;;
29432;SDS011;16405;53.964;13.448;2023-03-08T14:23:49;6.38;;;4.00;;
29432;SDS011;16405;53.964;13.448;2023-03-08T14:26:24;11.20;;;4.68;;
29432;SDS011;16405;53.964;13.448;2023-03-08T14:29:28;11.77;;;5.00;;
29432;SDS011;16405;53.964;13.448;2023-03-08T14:34:37;11.30;;;4.45;;
29432;SDS011;16405;53.964;13.448;2023-03-08T14:37:27;12.43;;;5.70;;
29432;SDS011;16405;53.964;13.448;2023-03-08T14:43:03;9.82;;;4.10;;
29432;SDS011;16405;53.964;13.448;2023-03-08T14:45:49;13.18;;;4.88;;
29432;SDS011;16405;53.964;13.448;2023-03-08T14:48:34;7.85;;;4.25;;
29432;SDS011;16405;53.964;13.448;2023-03-08T14:51:05;11.00;;;4.78;;
29432;SDS011;16405;53.964;13.448;2023-03-08T14:54:01;8.98;;;4.20;;
29432;SDS011;16405;53.964;13.448;2023-03-08T14:56:38;9.55;;;4.53;;
29432;SDS011;16405;53.964;13.448;2023-03-08T14:59:04;8.73;;;4.45;;
29432;SDS011;16405;53.964;13.448;2023-03-08T15:01:31;8.98;;;4.68;;
29432;SDS011;16405;53.964;13.448;2023-03-08T15:04:21;9.18;;;4.70;;
29432;SDS011;16405;53.964;13.448;2023-03-08T15:06:49;9.68;;;4.97;;
29432;SDS011;16405;53.964;13.448;2023-03-08T15:09:21;6.72;;;4.55;;
29432;SDS011;16405;53.964;13.448;2023-03-08T15:11:52;7.63;;;4.60;;
29432;SDS011;16405;53.964;13.448;2023-03-08T15:14:23;10.02;;;4.97;;
29432;SDS011;16405;53.964;13.448;2023-03-08T15:16:54;11.65;;;5.05;;
29432;SDS011;16405;53.964;13.448;2023-03-08T15:19:21;10.80;;;4.88;;
29432;SDS011;16405;53.964;13.448;2023-03-08T15:21:48;14.30;;;4.68;;
29432;SDS011;16405;53.964;13.448;2023-03-08T15:24:19;15.23;;;4.90;;
29432;SDS011;16405;53.964;13.448;2023-03-08T15:26:45;11.43;;;5.05;;
29432;SDS011;16405;53.964;13.448;2023-03-08T15:29:30;11.95;;;5.00;;
29432;SDS011;16405;53.964;13.448;2023-03-08T15:31:58;10.77;;;5.40;;
29432;SDS011;16405;53.964;13.448;2023-03-08T15:34:24;9.32;;;4.70;;
29432;SDS011;16405;53.964;13.448;2023-03-08T15:36:53;11.55;;;4.85;;
29432;SDS011;16405;53.964;13.448;2023-03-08T15:39:19;15.80;;;4.90;;
29432;SDS011;16405;53.964;13.448;2023-03-08T15:41:45;9.07;;;4.45;;
29432;SDS011;16405;53.964;13.448;2023-03-08T15:44:11;11.30;;;4.78;;
29432;SDS011;16405;53.964;13.448;2023-03-08T15:46:37;8.88;;;4.60;;
29432;SDS011;16405;53.964;13.448;2023-03-08T15:49:04;14.43;;;4.55;;
29432;SDS011;16405;53.964;13.448;2023-03-08T15:51:33;9.13;;;5.00;;
29432;SDS011;16405;53.964;13.448;2023-03-08T15:54:01;8.65;;;4.68;;
29432;SDS011;16405;53.964;13.448;2023-03-08T15:56:28;9.05;;;4.55;;
29432;SDS011;16405;53.964;13.448;2023-03-08T15:58:57;11.57;;;4.88;;
29432;SDS011;16405;53.964;13.448;2023-03-08T16:01:25;9.82;;;4.82;;
29432;SDS011;16405;53.964;13.448;2023-03-08T16:03:52;9.68;;;4.82;;
29432;SDS011;16405;53.964;13.448;2023-03-08T16:06:21;11.57;;;5.07;;
29432;SDS011;16405;53.964;13.448;2023-03-08T16:08:52;12.98;;;4.57;;
29432;SDS011;16405;53.964;13.448;2023-03-08T16:11:18;8.93;;;4.78;;
29432;SDS011;16405;53.964;13.448;2023-03-08T16:13:47;13.65;;;5.43;;
29432;SDS011;16405;53.964;13.448;2023-03-08T16:16:16;43.28;;;21.70;;
29432;SDS011;16405;53.964;13.448;2023-03-08T16:18:43;14.68;;;8.27;;
29432;SDS011;16405;53.964;13.448;2023-03-08T16:21:10;15.15;;;5.55;;
29432;SDS011;16405;53.964;13.448;2023-03-08T16:23:36;29.17;;;13.18;;
29432;SDS011;16405;53.964;13.448;2023-03-08T16:26:09;11.02;;;5.68;;
29432;SDS011;16405;53.964;13.448;2023-03-08T16:28:38;29.48;;;13.15;;
29432;SDS011;16405;53.964;13.448;2023-03-08T16:31:04;21.60;;;10.20;;
29432;SDS011;16405;53.964;13.448;2023-03-08T16:33:35;22.42;;;10.30;;
29432;SDS011;16405;53.964;13.448;2023-03-08T16:36:03;12.75;;;6.80;;
29432;SDS011;16405;53.964;13.448;2023-03-08T16:38:29;14.10;;;5.82;;
29432;SDS011;16405;53.964;13.448;2023-03-08T16:40:58;13.45;;;5.32;;
29432;SDS011;16405;53.964;13.448;2023-03-08T16:43:34;8.80;;;4.90;;
29432;SDS011;16405;53.964;13.448;2023-03-08T16:46:01;10.68;;;4.85;;
29432;SDS011;16405;53.964;13.448;2023-03-08T16:48:27;13.82;;;5.45;;
29432;SDS011;16405;53.964;13.448;2023-03-08T16:50:54;11.88;;;4.88;;
29432;SDS011;16405;53.964;13.448;2023-03-08T16:53:24;15.70;;;7.15;;
29432;SDS011;16405;53.964;13.448;2023-03-08T16:55:51;11.82;;;5.90;;
29432;SDS011;16405;53.964;13.448;2023-03-08T16:58:18;10.32;;;5.10;;
29432;SDS011;16405;53.964;13.448;2023-03-08T17:00:44;10.85;;;5.28;;
29432;SDS011;16405;53.964;13.448;2023-03-08T17:03:14;14.77;;;5.57;;